sensor_id;sensor_type;location;lat;lon;timestamp;P1;durP1;ratioP1;P2;durP2;ratioP2
40837;SDS011;29632;49.168;9.848;2022-07-21T00:01:50;9.80;;;7.13;;
40837;SDS011;29632;49.168;9.848;2022-07-21T00:04:17;9.30;;;7.00;;
40837;SDS011;29632;49.168;9.848;2022-07-21T00:06:44;9.17;;;7.57;;
40837;SDS011;29632;49.168;9.848;2022-07-21T00:09:11;8.07;;;7.03;;
40837;SDS011;29632;49.168;9.848;2022-07-21T00:11:38;11.70;;;8.33;;
40837;SDS011;29632;49.168;9.848;2022-07-21T00:14:05;9.37;;;7.33;;
40837;SDS011;29632;49.168;9.848;2022-07-21T00:16:33;9.00;;;7.50;;
40837;SDS011;29632;49.168;9.848;2022-07-21T00:18:59;8.93;;;7.97;;
40837;SDS011;29632;49.168;9.848;2022-07-21T00:21:25;8.77;;;7.17;;
40837;SDS011;29632;49.168;9.848;2022-07-21T00:23:52;9.57;;;7.37;;
40837;SDS011;29632;49.168;9.848;2022-07-21T00:26:18;9.33;;;7.70;;
40837;SDS011;29632;49.168;9.848;2022-07-21T00:28:44;9.50;;;7.10;;
40837;SDS011;29632;49.168;9.848;2022-07-21T00:31:09;10.90;;;7.77;;
40837;SDS011;29632;49.168;9.848;2022-07-21T00:33:36;8.77;;;7.53;;
40837;SDS011;29632;49.168;9.848;2022-07-21T00:36:02;9.77;;;7.80;;
40837;SDS011;29632;49.168;9.848;2022-07-21T00:38:28;10.57;;;7.23;;
40837;SDS011;29632;49.168;9.848;2022-07-21T00:40:54;9.67;;;7.83;;
40837;SDS011;29632;49.168;9.848;2022-07-21T00:43:20;10.63;;;8.23;;
40837;SDS011;29632;49.168;9.848;2022-07-21T00:45:46;12.43;;;8.37;;
40837;SDS011;29632;49.168;9.848;2022-07-21T00:48:12;11.10;;;7.70;;
40837;SDS011;29632;49.168;9.848;2022-07-21T00:50:38;11.27;;;7.50;;
40837;SDS011;29632;49.168;9.848;2022-07-21T00:53:04;9.47;;;7.73;;
40837;SDS011;29632;49.168;9.848;2022-07-21T00:55:30;11.77;;;7.90;;
40837;SDS011;29632;49.168;9.848;2022-07-21T00:57:55;11.37;;;8.03;;
40837;SDS011;29632;49.168;9.848;2022-07-21T01:00:23;10.23;;;7.77;;
40837;SDS011;29632;49.168;9.848;2022-07-21T01:02:53;10.27;;;8.37;;
40837;SDS011;29632;49.168;9.848;2022-07-21T01:05:20;9.20;;;8.10;;
40837;SDS011;29632;49.168;9.848;2022-07-21T01:07:47;11.17;;;8.97;;
40837;SDS011;29632;49.168;9.848;2022-07-21T01:10:16;12.00;;;8.80;;
40837;SDS011;29632;49.168;9.848;2022-07-21T01:12:45;11.20;;;8.27;;
40837;SDS011;29632;49.168;9.848;2022-07-21T01:15:12;10.50;;;7.60;;
40837;SDS011;29632;49.168;9.848;2022-07-21T01:17:40;9.07;;;8.17;;
40837;SDS011;29632;49.168;9.848;2022-07-21T01:20:08;12.13;;;8.37;;
40837;SDS011;29632;49.168;9.848;2022-07-21T01:22:41;9.93;;;7.97;;
40837;SDS011;29632;49.168;9.848;2022-07-21T01:25:09;11.40;;;8.60;;
40837;SDS011;29632;49.168;9.848;2022-07-21T01:27:35;10.93;;;8.60;;
40837;SDS011;29632;49.168;9.848;2022-07-21T01:30:02;10.40;;;8.77;;
40837;SDS011;29632;49.168;9.848;2022-07-21T01:32:32;10.20;;;8.80;;
40837;SDS011;29632;49.168;9.848;2022-07-21T01:35:00;10.73;;;8.37;;
40837;SDS011;29632;49.168;9.848;2022-07-21T01:37:28;11.23;;;8.67;;
40837;SDS011;29632;49.168;9.848;2022-07-21T01:39:54;9.20;;;7.70;;
40837;SDS011;29632;49.168;9.848;2022-07-21T01:42:38;10.43;;;8.20;;
40837;SDS011;29632;49.168;9.848;2022-07-21T01:45:04;10.50;;;7.93;;
40837;SDS011;29632;49.168;9.848;2022-07-21T01:47:31;9.70;;;7.23;;
40837;SDS011;29632;49.168;9.848;2022-07-21T01:49:58;8.67;;;7.23;;
40837;SDS011;29632;49.168;9.848;2022-07-21T01:52:23;8.83;;;7.63;;
40837;SDS011;29632;49.168;9.848;2022-07-21T01:54:49;11.07;;;8.37;;
40837;SDS011;29632;49.168;9.848;2022-07-21T01:57:16;11.33;;;8.23;;
40837;SDS011;29632;49.168;9.848;2022-07-21T01:59:42;9.17;;;7.50;;
40837;SDS011;29632;49.168;9.848;2022-07-21T02:02:08;11.43;;;8.10;;
40837;SDS011;29632;49.168;9.848;2022-07-21T02:04:34;9.70;;;8.57;;
40837;SDS011;29632;49.168;9.848;2022-07-21T02:07:00;10.50;;;8.27;;
40837;SDS011;29632;49.168;9.848;2022-07-21T02:09:27;11.20;;;8.70;;
40837;SDS011;29632;49.168;9.848;2022-07-21T02:11:53;13.83;;;9.97;;
40837;SDS011;29632;49.168;9.848;2022-07-21T02:14:19;9.07;;;7.80;;
40837;SDS011;29632;49.168;9.848;2022-07-21T02:16:45;9.33;;;8.30;;
40837;SDS011;29632;49.168;9.848;2022-07-21T02:19:10;10.83;;;8.80;;
40837;SDS011;29632;49.168;9.848;2022-07-21T02:21:36;11.13;;;8.60;;
40837;SDS011;29632;49.168;9.848;2022-07-21T02:24:02;10.47;;;8.60;;
40837;SDS011;29632;49.168;9.848;2022-07-21T02:26:29;10.17;;;8.10;;
40837;SDS011;29632;49.168;9.848;2022-07-21T02:28:54;12.53;;;9.50;;
40837;SDS011;29632;49.168;9.848;2022-07-21T02:31:20;9.13;;;7.37;;
40837;SDS011;29632;49.168;9.848;2022-07-21T02:33:46;10.77;;;7.87;;
40837;SDS011;29632;49.168;9.848;2022-07-21T02:36:12;9.83;;;8.50;;
40837;SDS011;29632;49.168;9.848;2022-07-21T02:38:37;15.13;;;9.90;;
40837;SDS011;29632;49.168;9.848;2022-07-21T02:41:03;10.37;;;8.60;;
40837;SDS011;29632;49.168;9.848;2022-07-21T02:43:29;11.50;;;8.13;;
40837;SDS011;29632;49.168;9.848;2022-07-21T02:45:55;10.03;;;7.63;;
40837;SDS011;29632;49.168;9.848;2022-07-21T02:48:21;10.90;;;8.37;;
40837;SDS011;29632;49.168;9.848;2022-07-21T02:50:47;10.30;;;8.70;;
40837;SDS011;29632;49.168;9.848;2022-07-21T02:53:14;10.30;;;7.93;;
40837;SDS011;29632;49.168;9.848;2022-07-21T02:55:48;11.20;;;8.33;;
40837;SDS011;29632;49.168;9.848;2022-07-21T03:00:49;9.63;;;7.47;;
40837;SDS011;29632;49.168;9.848;2022-07-21T03:03:18;9.80;;;7.93;;
40837;SDS011;29632;49.168;9.848;2022-07-21T03:05:47;9.60;;;7.87;;
40837;SDS011;29632;49.168;9.848;2022-07-21T03:08:13;10.57;;;7.63;;
40837;SDS011;29632;49.168;9.848;2022-07-21T03:10:40;11.43;;;8.10;;
40837;SDS011;29632;49.168;9.848;2022-07-21T03:13:06;9.43;;;7.83;;
40837;SDS011;29632;49.168;9.848;2022-07-21T03:15:32;11.13;;;8.70;;
40837;SDS011;29632;49.168;9.848;2022-07-21T03:17:59;9.77;;;7.87;;
40837;SDS011;29632;49.168;9.848;2022-07-21T03:20:27;10.63;;;8.23;;
40837;SDS011;29632;49.168;9.848;2022-07-21T03:22:55;11.10;;;8.07;;
40837;SDS011;29632;49.168;9.848;2022-07-21T03:25:21;10.13;;;7.30;;
40837;SDS011;29632;49.168;9.848;2022-07-21T03:27:47;9.50;;;7.80;;
40837;SDS011;29632;49.168;9.848;2022-07-21T03:30:14;11.60;;;7.90;;
40837;SDS011;29632;49.168;9.848;2022-07-21T03:32:41;9.10;;;8.17;;
40837;SDS011;29632;49.168;9.848;2022-07-21T03:35:08;9.53;;;6.70;;
40837;SDS011;29632;49.168;9.848;2022-07-21T03:37:51;9.90;;;7.83;;
40837;SDS011;29632;49.168;9.848;2022-07-21T03:40:21;9.50;;;7.07;;
40837;SDS011;29632;49.168;9.848;2022-07-21T03:42:53;9.57;;;7.07;;
40837;SDS011;29632;49.168;9.848;2022-07-21T03:45:22;8.90;;;7.13;;
40837;SDS011;29632;49.168;9.848;2022-07-21T03:47:49;12.40;;;8.10;;
40837;SDS011;29632;49.168;9.848;2022-07-21T03:50:15;8.73;;;6.90;;
40837;SDS011;29632;49.168;9.848;2022-07-21T03:52:42;10.20;;;7.83;;
40837;SDS011;29632;49.168;9.848;2022-07-21T03:55:09;10.13;;;7.63;;
40837;SDS011;29632;49.168;9.848;2022-07-21T03:57:41;9.43;;;7.10;;
40837;SDS011;29632;49.168;9.848;2022-07-21T04:00:23;9.93;;;7.47;;
40837;SDS011;29632;49.168;9.848;2022-07-21T04:02:58;8.23;;;7.33;;
40837;SDS011;29632;49.168;9.848;2022-07-21T04:05:25;10.63;;;7.87;;
40837;SDS011;29632;49.168;9.848;2022-07-21T04:07:52;8.77;;;7.80;;
40837;SDS011;29632;49.168;9.848;2022-07-21T04:10:20;9.43;;;8.07;;
40837;SDS011;29632;49.168;9.848;2022-07-21T04:12:51;10.67;;;7.50;;
40837;SDS011;29632;49.168;9.848;2022-07-21T04:15:18;10.63;;;8.33;;
40837;SDS011;29632;49.168;9.848;2022-07-21T04:17:44;12.07;;;8.53;;
40837;SDS011;29632;49.168;9.848;2022-07-21T05:11:34;14.07;;;11.57;;
40837;SDS011;29632;49.168;9.848;2022-07-21T05:14:00;13.80;;;11.07;;
40837;SDS011;29632;49.168;9.848;2022-07-21T05:16:26;13.27;;;10.70;;
40837;SDS011;29632;49.168;9.848;2022-07-21T05:18:51;14.67;;;11.47;;
40837;SDS011;29632;49.168;9.848;2022-07-21T05:21:17;12.00;;;10.43;;
40837;SDS011;29632;49.168;9.848;2022-07-21T05:23:43;11.00;;;9.57;;
40837;SDS011;29632;49.168;9.848;2022-07-21T05:26:10;14.33;;;11.23;;
40837;SDS011;29632;49.168;9.848;2022-07-21T05:28:37;12.17;;;9.77;;
40837;SDS011;29632;49.168;9.848;2022-07-21T05:31:03;11.27;;;10.00;;
40837;SDS011;29632;49.168;9.848;2022-07-21T05:33:29;12.13;;;9.67;;
40837;SDS011;29632;49.168;9.848;2022-07-21T05:35:55;10.70;;;9.60;;
40837;SDS011;29632;49.168;9.848;2022-07-21T05:38:21;15.07;;;11.17;;
40837;SDS011;29632;49.168;9.848;2022-07-21T05:40:47;12.70;;;9.80;;
40837;SDS011;29632;49.168;9.848;2022-07-21T05:43:13;12.40;;;9.87;;
40837;SDS011;29632;49.168;9.848;2022-07-21T05:45:38;11.50;;;9.83;;
40837;SDS011;29632;49.168;9.848;2022-07-21T05:48:04;10.77;;;9.67;;
40837;SDS011;29632;49.168;9.848;2022-07-21T05:50:30;11.73;;;9.83;;
40837;SDS011;29632;49.168;9.848;2022-07-21T05:52:56;11.33;;;10.13;;
40837;SDS011;29632;49.168;9.848;2022-07-21T05:55:22;12.93;;;11.00;;
40837;SDS011;29632;49.168;9.848;2022-07-21T05:57:48;12.17;;;10.30;;
40837;SDS011;29632;49.168;9.848;2022-07-21T06:00:14;11.50;;;9.07;;
40837;SDS011;29632;49.168;9.848;2022-07-21T06:02:41;11.20;;;9.47;;
40837;SDS011;29632;49.168;9.848;2022-07-21T06:05:09;12.13;;;9.87;;
40837;SDS011;29632;49.168;9.848;2022-07-21T06:07:35;13.33;;;10.80;;
40837;SDS011;29632;49.168;9.848;2022-07-21T06:10:02;13.07;;;10.80;;
40837;SDS011;29632;49.168;9.848;2022-07-21T06:12:28;15.33;;;10.53;;
40837;SDS011;29632;49.168;9.848;2022-07-21T06:14:54;10.73;;;9.47;;
40837;SDS011;29632;49.168;9.848;2022-07-21T06:17:20;11.67;;;9.13;;
40837;SDS011;29632;49.168;9.848;2022-07-21T06:19:47;11.33;;;9.93;;
40837;SDS011;29632;49.168;9.848;2022-07-21T06:22:13;11.77;;;9.83;;
40837;SDS011;29632;49.168;9.848;2022-07-21T06:24:39;10.53;;;9.23;;
40837;SDS011;29632;49.168;9.848;2022-07-21T06:27:04;12.77;;;9.77;;
40837;SDS011;29632;49.168;9.848;2022-07-21T06:29:30;11.87;;;10.27;;
40837;SDS011;29632;49.168;9.848;2022-07-21T06:31:56;17.20;;;9.43;;
40837;SDS011;29632;49.168;9.848;2022-07-21T06:34:21;10.53;;;9.43;;
40837;SDS011;29632;49.168;9.848;2022-07-21T06:36:47;11.03;;;9.23;;
40837;SDS011;29632;49.168;9.848;2022-07-21T06:39:13;13.93;;;9.50;;
40837;SDS011;29632;49.168;9.848;2022-07-21T06:41:39;11.80;;;10.53;;
40837;SDS011;29632;49.168;9.848;2022-07-21T06:44:05;11.97;;;10.33;;
40837;SDS011;29632;49.168;9.848;2022-07-21T06:46:32;10.07;;;9.07;;
40837;SDS011;29632;49.168;9.848;2022-07-21T06:48:59;14.03;;;9.37;;
40837;SDS011;29632;49.168;9.848;2022-07-21T06:51:25;10.53;;;9.20;;
40837;SDS011;29632;49.168;9.848;2022-07-21T06:53:51;10.23;;;8.57;;
40837;SDS011;29632;49.168;9.848;2022-07-21T06:56:18;12.30;;;9.30;;
40837;SDS011;29632;49.168;9.848;2022-07-21T06:58:44;10.10;;;8.90;;
40837;SDS011;29632;49.168;9.848;2022-07-21T07:01:11;10.40;;;8.63;;
40837;SDS011;29632;49.168;9.848;2022-07-21T07:03:37;10.37;;;8.90;;
40837;SDS011;29632;49.168;9.848;2022-07-21T07:06:03;12.03;;;9.10;;
40837;SDS011;29632;49.168;9.848;2022-07-21T07:08:30;10.90;;;7.73;;
40837;SDS011;29632;49.168;9.848;2022-07-21T07:10:57;9.70;;;8.33;;
40837;SDS011;29632;49.168;9.848;2022-07-21T07:13:22;9.23;;;7.47;;
40837;SDS011;29632;49.168;9.848;2022-07-21T07:15:48;10.30;;;7.83;;
40837;SDS011;29632;49.168;9.848;2022-07-21T07:18:14;10.90;;;8.43;;
40837;SDS011;29632;49.168;9.848;2022-07-21T07:20:40;9.50;;;7.80;;
40837;SDS011;29632;49.168;9.848;2022-07-21T07:23:06;8.83;;;7.93;;
40837;SDS011;29632;49.168;9.848;2022-07-21T07:25:32;10.07;;;7.75;;
40837;SDS011;29632;49.168;9.848;2022-07-21T07:27:59;9.67;;;8.30;;
40837;SDS011;29632;49.168;9.848;2022-07-21T07:30:26;9.23;;;7.30;;
40837;SDS011;29632;49.168;9.848;2022-07-21T07:32:52;8.98;;;7.72;;
40837;SDS011;29632;49.168;9.848;2022-07-21T07:35:18;9.57;;;7.40;;
40837;SDS011;29632;49.168;9.848;2022-07-21T07:37:44;9.10;;;7.38;;
40837;SDS011;29632;49.168;9.848;2022-07-21T07:40:12;8.43;;;6.90;;
40837;SDS011;29632;49.168;9.848;2022-07-21T07:42:41;7.78;;;6.90;;
40837;SDS011;29632;49.168;9.848;2022-07-21T07:45:07;8.05;;;6.57;;
40837;SDS011;29632;49.168;9.848;2022-07-21T07:47:34;8.68;;;6.68;;
40837;SDS011;29632;49.168;9.848;2022-07-21T07:50:00;9.60;;;7.43;;
40837;SDS011;29632;49.168;9.848;2022-07-21T07:52:26;9.18;;;7.00;;
40837;SDS011;29632;49.168;9.848;2022-07-21T07:54:53;9.00;;;6.78;;
40837;SDS011;29632;49.168;9.848;2022-07-21T07:57:19;8.85;;;6.30;;
40837;SDS011;29632;49.168;9.848;2022-07-21T07:59:45;9.20;;;7.43;;
40837;SDS011;29632;49.168;9.848;2022-07-21T08:02:11;8.02;;;6.50;;
40837;SDS011;29632;49.168;9.848;2022-07-21T08:04:37;8.13;;;6.18;;
40837;SDS011;29632;49.168;9.848;2022-07-21T08:07:03;8.02;;;6.45;;
40837;SDS011;29632;49.168;9.848;2022-07-21T08:09:29;8.48;;;6.78;;
40837;SDS011;29632;49.168;9.848;2022-07-21T08:11:55;7.38;;;6.53;;
40837;SDS011;29632;49.168;9.848;2022-07-21T08:14:21;7.75;;;6.20;;
40837;SDS011;29632;49.168;9.848;2022-07-21T08:16:47;9.07;;;5.60;;
40837;SDS011;29632;49.168;9.848;2022-07-21T08:19:13;7.00;;;6.10;;
40837;SDS011;29632;49.168;9.848;2022-07-21T08:21:38;9.43;;;6.18;;
40837;SDS011;29632;49.168;9.848;2022-07-21T08:24:05;7.70;;;6.03;;
40837;SDS011;29632;49.168;9.848;2022-07-21T08:26:32;6.43;;;5.65;;
40837;SDS011;29632;49.168;9.848;2022-07-21T08:28:58;6.93;;;5.43;;
40837;SDS011;29632;49.168;9.848;2022-07-21T08:31:24;6.72;;;5.63;;
40837;SDS011;29632;49.168;9.848;2022-07-21T08:33:50;7.10;;;5.68;;
40837;SDS011;29632;49.168;9.848;2022-07-21T08:36:17;8.75;;;6.07;;
40837;SDS011;29632;49.168;9.848;2022-07-21T08:38:43;6.57;;;5.05;;
40837;SDS011;29632;49.168;9.848;2022-07-21T08:41:09;7.15;;;4.88;;
40837;SDS011;29632;49.168;9.848;2022-07-21T08:43:36;8.32;;;5.38;;
40837;SDS011;29632;49.168;9.848;2022-07-21T08:46:02;6.70;;;4.55;;
40837;SDS011;29632;49.168;9.848;2022-07-21T08:48:29;7.45;;;5.10;;
40837;SDS011;29632;49.168;9.848;2022-07-21T08:50:55;6.50;;;4.55;;
40837;SDS011;29632;49.168;9.848;2022-07-21T08:53:22;7.07;;;4.75;;
40837;SDS011;29632;49.168;9.848;2022-07-21T08:55:49;7.38;;;4.75;;
40837;SDS011;29632;49.168;9.848;2022-07-21T08:58:15;5.90;;;4.70;;
40837;SDS011;29632;49.168;9.848;2022-07-21T09:00:42;7.50;;;5.65;;
40837;SDS011;29632;49.168;9.848;2022-07-21T09:03:19;6.25;;;4.75;;
40837;SDS011;29632;49.168;9.848;2022-07-21T09:08:41;6.67;;;5.03;;
40837;SDS011;29632;49.168;9.848;2022-07-21T09:11:14;6.47;;;5.00;;
40837;SDS011;29632;49.168;9.848;2022-07-21T09:14:08;5.85;;;4.85;;
40837;SDS011;29632;49.168;9.848;2022-07-21T09:16:45;7.13;;;5.47;;
40837;SDS011;29632;49.168;9.848;2022-07-21T09:19:17;6.35;;;5.00;;
40837;SDS011;29632;49.168;9.848;2022-07-21T09:21:50;8.10;;;5.35;;
40837;SDS011;29632;49.168;9.848;2022-07-21T09:29:42;4.63;;;4.10;;
40837;SDS011;29632;49.168;9.848;2022-07-21T09:32:30;6.55;;;5.65;;
40837;SDS011;29632;49.168;9.848;2022-07-21T09:35:03;6.65;;;5.10;;
40837;SDS011;29632;49.168;9.848;2022-07-21T09:37:36;8.00;;;5.50;;
40837;SDS011;29632;49.168;9.848;2022-07-21T09:40:04;7.85;;;5.40;;
40837;SDS011;29632;49.168;9.848;2022-07-21T09:42:39;7.10;;;5.03;;
40837;SDS011;29632;49.168;9.848;2022-07-21T09:45:15;7.38;;;5.25;;
40837;SDS011;29632;49.168;9.848;2022-07-21T09:47:43;8.15;;;5.70;;
40837;SDS011;29632;49.168;9.848;2022-07-21T09:50:11;6.03;;;4.82;;
40837;SDS011;29632;49.168;9.848;2022-07-21T09:52:40;6.07;;;4.80;;
40837;SDS011;29632;49.168;9.848;2022-07-21T09:55:09;5.68;;;4.55;;
40837;SDS011;29632;49.168;9.848;2022-07-21T09:57:39;6.80;;;4.38;;
40837;SDS011;29632;49.168;9.848;2022-07-21T10:00:06;6.35;;;4.30;;
40837;SDS011;29632;49.168;9.848;2022-07-21T10:02:35;5.45;;;3.70;;
40837;SDS011;29632;49.168;9.848;2022-07-21T10:05:16;5.05;;;4.50;;
40837;SDS011;29632;49.168;9.848;2022-07-21T10:07:45;5.50;;;4.50;;
40837;SDS011;29632;49.168;9.848;2022-07-21T10:10:13;5.25;;;3.80;;
40837;SDS011;29632;49.168;9.848;2022-07-21T10:12:40;5.90;;;3.75;;
40837;SDS011;29632;49.168;9.848;2022-07-21T10:15:07;6.18;;;4.60;;
40837;SDS011;29632;49.168;9.848;2022-07-21T10:17:33;4.82;;;4.03;;
40837;SDS011;29632;49.168;9.848;2022-07-21T10:23:03;5.25;;;4.30;;
40837;SDS011;29632;49.168;9.848;2022-07-21T10:25:43;7.05;;;4.55;;
40837;SDS011;29632;49.168;9.848;2022-07-21T10:28:12;6.53;;;4.60;;
40837;SDS011;29632;49.168;9.848;2022-07-21T10:33:17;6.35;;;3.85;;
40837;SDS011;29632;49.168;9.848;2022-07-21T10:35:49;5.28;;;3.88;;
40837;SDS011;29632;49.168;9.848;2022-07-21T10:38:29;5.35;;;4.47;;
40837;SDS011;29632;49.168;9.848;2022-07-21T10:40:58;7.63;;;3.92;;
40837;SDS011;29632;49.168;9.848;2022-07-21T10:45:53;6.88;;;3.85;;
40837;SDS011;29632;49.168;9.848;2022-07-21T10:51:08;4.70;;;3.47;;
40837;SDS011;29632;49.168;9.848;2022-07-21T10:56:04;9.05;;;4.25;;
40837;SDS011;29632;49.168;9.848;2022-07-21T11:01:06;5.65;;;3.92;;
40837;SDS011;29632;49.168;9.848;2022-07-21T11:06:38;6.47;;;4.47;;
40837;SDS011;29632;49.168;9.848;2022-07-21T11:09:06;7.13;;;4.60;;
40837;SDS011;29632;49.168;9.848;2022-07-21T11:12:00;4.75;;;4.15;;
40837;SDS011;29632;49.168;9.848;2022-07-21T11:14:41;5.15;;;3.80;;
40837;SDS011;29632;49.168;9.848;2022-07-21T11:17:25;6.22;;;4.57;;
40837;SDS011;29632;49.168;9.848;2022-07-21T11:19:55;5.72;;;4.15;;
40837;SDS011;29632;49.168;9.848;2022-07-21T11:22:22;5.63;;;4.22;;
40837;SDS011;29632;49.168;9.848;2022-07-21T11:24:50;6.22;;;4.10;;
40837;SDS011;29632;49.168;9.848;2022-07-21T11:27:32;5.18;;;4.00;;
40837;SDS011;29632;49.168;9.848;2022-07-21T11:30:02;6.78;;;3.78;;
40837;SDS011;29632;49.168;9.848;2022-07-21T11:32:31;4.65;;;3.40;;
40837;SDS011;29632;49.168;9.848;2022-07-21T11:35:02;4.25;;;3.03;;
40837;SDS011;29632;49.168;9.848;2022-07-21T11:37:33;3.47;;;2.88;;
40837;SDS011;29632;49.168;9.848;2022-07-21T11:40:08;4.32;;;3.22;;
40837;SDS011;29632;49.168;9.848;2022-07-21T11:42:44;3.92;;;3.13;;
40837;SDS011;29632;49.168;9.848;2022-07-21T11:45:16;4.00;;;3.25;;
40837;SDS011;29632;49.168;9.848;2022-07-21T11:47:42;4.15;;;3.72;;
40837;SDS011;29632;49.168;9.848;2022-07-21T11:50:09;3.88;;;3.17;;
40837;SDS011;29632;49.168;9.848;2022-07-21T11:52:38;3.80;;;2.80;;
40837;SDS011;29632;49.168;9.848;2022-07-21T11:55:05;5.18;;;3.28;;
40837;SDS011;29632;49.168;9.848;2022-07-21T11:57:34;5.27;;;3.67;;
40837;SDS011;29632;49.168;9.848;2022-07-21T12:00:00;5.85;;;4.07;;
40837;SDS011;29632;49.168;9.848;2022-07-21T12:02:30;6.10;;;3.20;;
40837;SDS011;29632;49.168;9.848;2022-07-21T12:04:57;4.35;;;3.38;;
40837;SDS011;29632;49.168;9.848;2022-07-21T12:07:30;3.67;;;2.95;;
40837;SDS011;29632;49.168;9.848;2022-07-21T12:10:02;3.85;;;2.88;;
40837;SDS011;29632;49.168;9.848;2022-07-21T12:12:47;4.07;;;3.17;;
40837;SDS011;29632;49.168;9.848;2022-07-21T12:17:46;4.47;;;3.13;;
40837;SDS011;29632;49.168;9.848;2022-07-21T12:20:30;3.67;;;2.97;;
40837;SDS011;29632;49.168;9.848;2022-07-21T12:23:18;5.25;;;3.17;;
40837;SDS011;29632;49.168;9.848;2022-07-21T12:25:54;5.53;;;3.13;;
40837;SDS011;29632;49.168;9.848;2022-07-21T12:28:40;4.45;;;3.38;;
40837;SDS011;29632;49.168;9.848;2022-07-21T12:31:11;4.63;;;3.05;;
40837;SDS011;29632;49.168;9.848;2022-07-21T12:33:45;4.78;;;3.05;;
40837;SDS011;29632;49.168;9.848;2022-07-21T12:36:13;4.40;;;3.17;;
40837;SDS011;29632;49.168;9.848;2022-07-21T12:38:40;5.53;;;3.65;;
40837;SDS011;29632;49.168;9.848;2022-07-21T12:41:18;3.58;;;3.28;;
40837;SDS011;29632;49.168;9.848;2022-07-21T12:43:58;4.63;;;3.20;;
40837;SDS011;29632;49.168;9.848;2022-07-21T12:46:29;4.93;;;3.42;;
40837;SDS011;29632;49.168;9.848;2022-07-21T12:49:04;6.20;;;4.65;;
40837;SDS011;29632;49.168;9.848;2022-07-21T12:51:33;5.30;;;3.90;;
40837;SDS011;29632;49.168;9.848;2022-07-21T12:54:00;6.55;;;3.95;;
40837;SDS011;29632;49.168;9.848;2022-07-21T12:56:27;5.75;;;4.30;;
40837;SDS011;29632;49.168;9.848;2022-07-21T12:58:57;5.93;;;4.15;;
40837;SDS011;29632;49.168;9.848;2022-07-21T13:01:25;5.25;;;3.97;;
40837;SDS011;29632;49.168;9.848;2022-07-21T13:03:53;4.38;;;3.65;;
40837;SDS011;29632;49.168;9.848;2022-07-21T13:06:19;8.18;;;3.78;;
40837;SDS011;29632;49.168;9.848;2022-07-21T13:08:45;7.65;;;3.72;;
40837;SDS011;29632;49.168;9.848;2022-07-21T13:11:13;5.00;;;3.60;;
40837;SDS011;29632;49.168;9.848;2022-07-21T13:13:43;6.30;;;3.72;;
40837;SDS011;29632;49.168;9.848;2022-07-21T13:16:11;5.60;;;3.95;;
40837;SDS011;29632;49.168;9.848;2022-07-21T13:18:36;4.90;;;3.67;;
40837;SDS011;29632;49.168;9.848;2022-07-21T13:21:02;6.13;;;4.40;;
40837;SDS011;29632;49.168;9.848;2022-07-21T13:23:29;4.95;;;4.00;;
40837;SDS011;29632;49.168;9.848;2022-07-21T13:25:55;5.97;;;4.00;;
40837;SDS011;29632;49.168;9.848;2022-07-21T13:28:21;5.88;;;4.15;;
40837;SDS011;29632;49.168;9.848;2022-07-21T13:30:47;6.25;;;5.25;;
40837;SDS011;29632;49.168;9.848;2022-07-21T13:33:13;7.60;;;4.90;;
40837;SDS011;29632;49.168;9.848;2022-07-21T13:35:40;5.43;;;3.85;;
40837;SDS011;29632;49.168;9.848;2022-07-21T13:38:06;5.25;;;3.83;;
40837;SDS011;29632;49.168;9.848;2022-07-21T13:40:32;6.00;;;4.28;;
40837;SDS011;29632;49.168;9.848;2022-07-21T13:42:58;6.22;;;4.40;;
40837;SDS011;29632;49.168;9.848;2022-07-21T13:45:24;5.05;;;3.70;;
40837;SDS011;29632;49.168;9.848;2022-07-21T13:47:50;4.35;;;3.65;;
40837;SDS011;29632;49.168;9.848;2022-07-21T13:50:15;5.00;;;3.83;;
40837;SDS011;29632;49.168;9.848;2022-07-21T13:52:41;4.53;;;3.35;;
40837;SDS011;29632;49.168;9.848;2022-07-21T13:55:08;4.75;;;3.67;;
40837;SDS011;29632;49.168;9.848;2022-07-21T13:57:34;5.13;;;3.70;;
40837;SDS011;29632;49.168;9.848;2022-07-21T14:00:03;4.88;;;3.67;;
40837;SDS011;29632;49.168;9.848;2022-07-21T14:02:31;6.65;;;3.75;;
40837;SDS011;29632;49.168;9.848;2022-07-21T14:04:58;6.20;;;4.20;;
40837;SDS011;29632;49.168;9.848;2022-07-21T14:07:24;6.88;;;3.75;;
40837;SDS011;29632;49.168;9.848;2022-07-21T14:09:50;4.28;;;3.55;;
40837;SDS011;29632;49.168;9.848;2022-07-21T14:12:16;6.05;;;4.00;;
40837;SDS011;29632;49.168;9.848;2022-07-21T14:14:43;5.00;;;3.70;;
40837;SDS011;29632;49.168;9.848;2022-07-21T14:17:12;3.57;;;2.80;;
40837;SDS011;29632;49.168;9.848;2022-07-21T14:19:39;4.80;;;3.67;;
40837;SDS011;29632;49.168;9.848;2022-07-21T14:22:04;5.40;;;3.80;;
40837;SDS011;29632;49.168;9.848;2022-07-21T14:24:30;5.80;;;3.70;;
40837;SDS011;29632;49.168;9.848;2022-07-21T14:27:14;4.32;;;3.45;;
40837;SDS011;29632;49.168;9.848;2022-07-21T14:29:40;5.68;;;3.47;;
40837;SDS011;29632;49.168;9.848;2022-07-21T14:32:06;4.35;;;3.70;;
40837;SDS011;29632;49.168;9.848;2022-07-21T14:34:32;3.95;;;3.17;;
40837;SDS011;29632;49.168;9.848;2022-07-21T14:36:58;5.30;;;3.28;;
40837;SDS011;29632;49.168;9.848;2022-07-21T14:39:23;4.97;;;2.90;;
40837;SDS011;29632;49.168;9.848;2022-07-21T14:41:49;4.85;;;3.55;;
40837;SDS011;29632;49.168;9.848;2022-07-21T14:44:16;5.22;;;3.40;;
40837;SDS011;29632;49.168;9.848;2022-07-21T14:46:41;5.55;;;3.65;;
40837;SDS011;29632;49.168;9.848;2022-07-21T14:49:07;5.20;;;3.38;;
40837;SDS011;29632;49.168;9.848;2022-07-21T14:51:33;5.55;;;3.28;;
40837;SDS011;29632;49.168;9.848;2022-07-21T14:54:00;6.85;;;5.28;;
40837;SDS011;29632;49.168;9.848;2022-07-21T14:56:25;5.97;;;3.90;;
40837;SDS011;29632;49.168;9.848;2022-07-21T14:58:51;5.53;;;3.63;;
40837;SDS011;29632;49.168;9.848;2022-07-21T15:01:17;5.38;;;3.50;;
40837;SDS011;29632;49.168;9.848;2022-07-21T15:03:43;4.45;;;3.33;;
40837;SDS011;29632;49.168;9.848;2022-07-21T15:06:08;3.92;;;3.08;;
40837;SDS011;29632;49.168;9.848;2022-07-21T15:08:34;7.03;;;3.95;;
40837;SDS011;29632;49.168;9.848;2022-07-21T15:11:00;4.15;;;3.45;;
40837;SDS011;29632;49.168;9.848;2022-07-21T15:13:26;5.03;;;3.92;;
40837;SDS011;29632;49.168;9.848;2022-07-21T15:15:54;4.03;;;3.35;;
40837;SDS011;29632;49.168;9.848;2022-07-21T15:18:20;6.03;;;4.13;;
40837;SDS011;29632;49.168;9.848;2022-07-21T15:20:46;5.90;;;3.78;;
40837;SDS011;29632;49.168;9.848;2022-07-21T15:23:12;5.38;;;3.30;;
40837;SDS011;29632;49.168;9.848;2022-07-21T15:25:38;6.10;;;3.95;;
40837;SDS011;29632;49.168;9.848;2022-07-21T15:28:04;4.43;;;3.42;;
40837;SDS011;29632;49.168;9.848;2022-07-21T15:30:31;6.65;;;3.47;;
40837;SDS011;29632;49.168;9.848;2022-07-21T15:32:58;4.20;;;3.40;;
40837;SDS011;29632;49.168;9.848;2022-07-21T15:35:24;4.43;;;3.63;;
40837;SDS011;29632;49.168;9.848;2022-07-21T15:37:49;3.85;;;3.33;;
40837;SDS011;29632;49.168;9.848;2022-07-21T15:40:16;3.97;;;3.22;;
40837;SDS011;29632;49.168;9.848;2022-07-21T15:42:42;4.47;;;3.15;;
40837;SDS011;29632;49.168;9.848;2022-07-21T15:45:11;4.47;;;3.20;;
40837;SDS011;29632;49.168;9.848;2022-07-21T15:50:04;5.32;;;3.20;;
40837;SDS011;29632;49.168;9.848;2022-07-21T15:52:30;6.13;;;3.42;;
40837;SDS011;29632;49.168;9.848;2022-07-21T15:54:57;4.47;;;3.15;;
40837;SDS011;29632;49.168;9.848;2022-07-21T15:57:23;5.07;;;3.42;;
40837;SDS011;29632;49.168;9.848;2022-07-21T15:59:49;4.10;;;3.15;;
40837;SDS011;29632;49.168;9.848;2022-07-21T16:02:15;4.50;;;3.28;;
40837;SDS011;29632;49.168;9.848;2022-07-21T16:04:42;4.43;;;3.38;;
40837;SDS011;29632;49.168;9.848;2022-07-21T16:07:09;4.20;;;2.85;;
40837;SDS011;29632;49.168;9.848;2022-07-21T16:09:37;4.15;;;3.13;;
40837;SDS011;29632;49.168;9.848;2022-07-21T16:12:04;5.32;;;3.83;;
40837;SDS011;29632;49.168;9.848;2022-07-21T16:14:30;3.92;;;2.75;;